Terminal Aerodrome Forecast
Issued by NWS

Home | Current Version | Previous Version | Text Only | Print | Product List | Glossary On
Versions: 1 2 3 4 5 6 7 8 9 10 11 12 13 14 15 16 17 18 19 20 21 22 23 24 25
000
FTUS41 KBOX 231722
TAFBAF
TAF
KBAF 231722Z 2318/2418 01018G30KT P6SM OVC015
     FM232100 01011G24KT P6SM BKN015
     FM240500 36009KT P6SM BKN010
     FM241300 33008KT P6SM OVC025
     FM241500 33010G19KT P6SM BKN030=

USA.gov is the U.S. government's official web portal to all federal, state and local government web resources and services.